sensor_id;sensor_type;location;lat;lon;timestamp;P1;durP1;ratioP1;P2;durP2;ratioP2
32786;SDS011;19139;49.372;8.580;2023-03-23T00:01:23;4.37;;;2.73;;
32786;SDS011;19139;49.372;8.580;2023-03-23T00:03:51;3.90;;;2.53;;
32786;SDS011;19139;49.372;8.580;2023-03-23T00:06:19;5.30;;;2.93;;
32786;SDS011;19139;49.372;8.580;2023-03-23T00:08:49;4.40;;;2.47;;
32786;SDS011;19139;49.372;8.580;2023-03-23T00:11:21;5.43;;;2.77;;
32786;SDS011;19139;49.372;8.580;2023-03-23T00:13:51;6.70;;;2.60;;
32786;SDS011;19139;49.372;8.580;2023-03-23T00:16:21;4.43;;;2.80;;
32786;SDS011;19139;49.372;8.580;2023-03-23T00:18:56;4.00;;;2.70;;
32786;SDS011;19139;49.372;8.580;2023-03-23T00:21:44;4.97;;;2.30;;
32786;SDS011;19139;49.372;8.580;2023-03-23T00:24:15;5.43;;;2.70;;
32786;SDS011;19139;49.372;8.580;2023-03-23T00:26:42;4.63;;;2.67;;
32786;SDS011;19139;49.372;8.580;2023-03-23T00:29:16;5.00;;;2.50;;
32786;SDS011;19139;49.372;8.580;2023-03-23T00:31:44;5.33;;;2.33;;
32786;SDS011;19139;49.372;8.580;2023-03-23T00:34:15;3.97;;;2.47;;
32786;SDS011;19139;49.372;8.580;2023-03-23T00:36:46;3.93;;;2.50;;
32786;SDS011;19139;49.372;8.580;2023-03-23T00:39:13;4.30;;;3.13;;
32786;SDS011;19139;49.372;8.580;2023-03-23T00:41:41;4.70;;;2.60;;
32786;SDS011;19139;49.372;8.580;2023-03-23T00:44:07;3.43;;;2.10;;
32786;SDS011;19139;49.372;8.580;2023-03-23T00:46:33;6.87;;;3.10;;
32786;SDS011;19139;49.372;8.580;2023-03-23T00:48:59;4.47;;;2.60;;
32786;SDS011;19139;49.372;8.580;2023-03-23T00:51:25;4.60;;;2.50;;
32786;SDS011;19139;49.372;8.580;2023-03-23T00:53:51;6.53;;;2.27;;
32786;SDS011;19139;49.372;8.580;2023-03-23T00:56:16;4.13;;;2.77;;
32786;SDS011;19139;49.372;8.580;2023-03-23T00:58:42;5.30;;;2.90;;
32786;SDS011;19139;49.372;8.580;2023-03-23T01:01:08;5.70;;;2.67;;
32786;SDS011;19139;49.372;8.580;2023-03-23T01:03:34;5.03;;;2.70;;
32786;SDS011;19139;49.372;8.580;2023-03-23T01:06:05;5.40;;;2.80;;
32786;SDS011;19139;49.372;8.580;2023-03-23T01:08:33;4.57;;;2.97;;
32786;SDS011;19139;49.372;8.580;2023-03-23T01:11:05;4.77;;;2.60;;
32786;SDS011;19139;49.372;8.580;2023-03-23T01:13:31;4.27;;;2.27;;
32786;SDS011;19139;49.372;8.580;2023-03-23T01:15:57;3.67;;;2.67;;
32786;SDS011;19139;49.372;8.580;2023-03-23T01:18:22;4.03;;;2.30;;
32786;SDS011;19139;49.372;8.580;2023-03-23T01:20:48;5.23;;;2.80;;
32786;SDS011;19139;49.372;8.580;2023-03-23T01:23:13;5.67;;;2.30;;
32786;SDS011;19139;49.372;8.580;2023-03-23T01:25:39;3.70;;;2.63;;
32786;SDS011;19139;49.372;8.580;2023-03-23T01:28:05;3.63;;;1.93;;
32786;SDS011;19139;49.372;8.580;2023-03-23T01:30:30;5.77;;;2.70;;
32786;SDS011;19139;49.372;8.580;2023-03-23T01:32:56;4.07;;;2.40;;
32786;SDS011;19139;49.372;8.580;2023-03-23T01:35:22;3.57;;;2.37;;
32786;SDS011;19139;49.372;8.580;2023-03-23T01:37:47;4.87;;;2.27;;
32786;SDS011;19139;49.372;8.580;2023-03-23T01:40:13;3.97;;;2.30;;
32786;SDS011;19139;49.372;8.580;2023-03-23T01:42:39;4.67;;;2.20;;
32786;SDS011;19139;49.372;8.580;2023-03-23T01:45:21;3.97;;;2.33;;
32786;SDS011;19139;49.372;8.580;2023-03-23T01:47:55;3.87;;;2.30;;
32786;SDS011;19139;49.372;8.580;2023-03-23T01:50:25;4.10;;;2.43;;
32786;SDS011;19139;49.372;8.580;2023-03-23T01:52:53;3.03;;;2.30;;
32786;SDS011;19139;49.372;8.580;2023-03-23T01:55:21;4.37;;;2.17;;
32786;SDS011;19139;49.372;8.580;2023-03-23T01:57:49;3.27;;;2.10;;
32786;SDS011;19139;49.372;8.580;2023-03-23T02:00:15;3.27;;;2.33;;
32786;SDS011;19139;49.372;8.580;2023-03-23T02:02:42;3.80;;;2.00;;
32786;SDS011;19139;49.372;8.580;2023-03-23T02:05:51;3.43;;;2.40;;
32786;SDS011;19139;49.372;8.580;2023-03-23T02:08:01;6.50;;;2.70;;
32786;SDS011;19139;49.372;8.580;2023-03-23T02:10:29;3.37;;;2.57;;
32786;SDS011;19139;49.372;8.580;2023-03-23T02:12:56;4.87;;;2.90;;
32786;SDS011;19139;49.372;8.580;2023-03-23T02:15:24;3.63;;;2.20;;
32786;SDS011;19139;49.372;8.580;2023-03-23T02:18:38;3.63;;;2.67;;
32786;SDS011;19139;49.372;8.580;2023-03-23T02:21:01;3.37;;;2.10;;
32786;SDS011;19139;49.372;8.580;2023-03-23T02:24:04;3.23;;;2.13;;
32786;SDS011;19139;49.372;8.580;2023-03-23T02:35:20;4.50;;;2.67;;
32786;SDS011;19139;49.372;8.580;2023-03-23T02:37:54;4.50;;;2.17;;
32786;SDS011;19139;49.372;8.580;2023-03-23T02:40:25;2.17;;;1.90;;
32786;SDS011;19139;49.372;8.580;2023-03-23T02:42:56;3.17;;;2.23;;
32786;SDS011;19139;49.372;8.580;2023-03-23T02:45:24;3.50;;;2.30;;
32786;SDS011;19139;49.372;8.580;2023-03-23T02:47:53;3.07;;;2.00;;
32786;SDS011;19139;49.372;8.580;2023-03-23T02:50:22;5.07;;;2.53;;
32786;SDS011;19139;49.372;8.580;2023-03-23T02:52:52;2.80;;;2.07;;
32786;SDS011;19139;49.372;8.580;2023-03-23T02:55:19;3.00;;;1.90;;
32786;SDS011;19139;49.372;8.580;2023-03-23T02:57:49;2.93;;;2.10;;
32786;SDS011;19139;49.372;8.580;2023-03-23T03:00:17;3.63;;;2.30;;
32786;SDS011;19139;49.372;8.580;2023-03-23T03:02:53;2.80;;;1.87;;
32786;SDS011;19139;49.372;8.580;2023-03-23T03:08:13;4.10;;;2.20;;
32786;SDS011;19139;49.372;8.580;2023-03-23T03:11:01;3.30;;;2.00;;
32786;SDS011;19139;49.372;8.580;2023-03-23T03:16:35;3.37;;;2.13;;
32786;SDS011;19139;49.372;8.580;2023-03-23T03:19:06;2.70;;;1.83;;
32786;SDS011;19139;49.372;8.580;2023-03-23T03:21:44;3.17;;;2.10;;
32786;SDS011;19139;49.372;8.580;2023-03-23T03:24:12;4.37;;;2.13;;
32786;SDS011;19139;49.372;8.580;2023-03-23T03:26:41;4.27;;;2.27;;
32786;SDS011;19139;49.372;8.580;2023-03-23T03:29:13;3.13;;;2.00;;
32786;SDS011;19139;49.372;8.580;2023-03-23T03:31:42;3.37;;;2.27;;
32786;SDS011;19139;49.372;8.580;2023-03-23T03:34:10;3.87;;;2.00;;
32786;SDS011;19139;49.372;8.580;2023-03-23T03:36:37;3.43;;;2.07;;
32786;SDS011;19139;49.372;8.580;2023-03-23T03:39:06;3.63;;;2.03;;
32786;SDS011;19139;49.372;8.580;2023-03-23T03:41:34;3.03;;;2.10;;
32786;SDS011;19139;49.372;8.580;2023-03-23T03:44:02;3.27;;;2.10;;
32786;SDS011;19139;49.372;8.580;2023-03-23T03:46:28;2.97;;;2.40;;
32786;SDS011;19139;49.372;8.580;2023-03-23T03:48:56;2.90;;;1.90;;
32786;SDS011;19139;49.372;8.580;2023-03-23T03:51:22;4.93;;;2.10;;
32786;SDS011;19139;49.372;8.580;2023-03-23T03:53:49;3.13;;;2.10;;
32786;SDS011;19139;49.372;8.580;2023-03-23T03:56:15;2.60;;;2.17;;
32786;SDS011;19139;49.372;8.580;2023-03-23T03:58:41;3.17;;;1.77;;
32786;SDS011;19139;49.372;8.580;2023-03-23T04:01:08;4.40;;;2.00;;
32786;SDS011;19139;49.372;8.580;2023-03-23T04:03:38;2.50;;;1.67;;
32786;SDS011;19139;49.372;8.580;2023-03-23T04:06:04;3.40;;;1.80;;
32786;SDS011;19139;49.372;8.580;2023-03-23T04:08:30;3.10;;;1.80;;
32786;SDS011;19139;49.372;8.580;2023-03-23T04:10:57;3.03;;;2.10;;
32786;SDS011;19139;49.372;8.580;2023-03-23T04:13:22;3.03;;;1.90;;
32786;SDS011;19139;49.372;8.580;2023-03-23T04:15:48;5.40;;;3.03;;
32786;SDS011;19139;49.372;8.580;2023-03-23T04:18:15;2.70;;;1.70;;
32786;SDS011;19139;49.372;8.580;2023-03-23T04:20:42;3.60;;;2.23;;
32786;SDS011;19139;49.372;8.580;2023-03-23T04:23:12;1.83;;;1.50;;
32786;SDS011;19139;49.372;8.580;2023-03-23T04:25:48;3.97;;;1.80;;
32786;SDS011;19139;49.372;8.580;2023-03-23T04:28:18;3.37;;;1.70;;
32786;SDS011;19139;49.372;8.580;2023-03-23T04:30:48;2.47;;;1.77;;
32786;SDS011;19139;49.372;8.580;2023-03-23T04:33:18;4.47;;;2.20;;
32786;SDS011;19139;49.372;8.580;2023-03-23T04:35:44;4.30;;;2.20;;
32786;SDS011;19139;49.372;8.580;2023-03-23T04:38:13;3.17;;;2.03;;
32786;SDS011;19139;49.372;8.580;2023-03-23T04:40:41;2.87;;;1.83;;
32786;SDS011;19139;49.372;8.580;2023-03-23T04:43:09;2.60;;;1.47;;
32786;SDS011;19139;49.372;8.580;2023-03-23T04:45:37;4.23;;;1.87;;
32786;SDS011;19139;49.372;8.580;2023-03-23T04:48:06;2.53;;;1.70;;
32786;SDS011;19139;49.372;8.580;2023-03-23T04:50:33;2.50;;;1.77;;
32786;SDS011;19139;49.372;8.580;2023-03-23T04:53:00;2.47;;;1.80;;
32786;SDS011;19139;49.372;8.580;2023-03-23T04:55:31;2.87;;;2.00;;
32786;SDS011;19139;49.372;8.580;2023-03-23T04:58:01;2.03;;;1.33;;
32786;SDS011;19139;49.372;8.580;2023-03-23T05:00:31;3.40;;;1.97;;
32786;SDS011;19139;49.372;8.580;2023-03-23T05:02:58;2.83;;;1.90;;
32786;SDS011;19139;49.372;8.580;2023-03-23T05:05:26;2.00;;;1.73;;
32786;SDS011;19139;49.372;8.580;2023-03-23T05:07:54;2.47;;;1.87;;
32786;SDS011;19139;49.372;8.580;2023-03-23T05:10:20;2.57;;;1.67;;
32786;SDS011;19139;49.372;8.580;2023-03-23T05:12:45;2.07;;;1.60;;
32786;SDS011;19139;49.372;8.580;2023-03-23T05:15:12;2.40;;;1.53;;
32786;SDS011;19139;49.372;8.580;2023-03-23T05:17:39;2.00;;;1.37;;
32786;SDS011;19139;49.372;8.580;2023-03-23T05:20:14;2.63;;;1.93;;
32786;SDS011;19139;49.372;8.580;2023-03-23T05:22:45;1.93;;;1.63;;
32786;SDS011;19139;49.372;8.580;2023-03-23T05:25:14;2.30;;;1.40;;
32786;SDS011;19139;49.372;8.580;2023-03-23T05:27:43;3.70;;;1.97;;
32786;SDS011;19139;49.372;8.580;2023-03-23T05:30:13;2.00;;;1.63;;
32786;SDS011;19139;49.372;8.580;2023-03-23T05:32:41;2.40;;;2.00;;
32786;SDS011;19139;49.372;8.580;2023-03-23T05:35:08;2.63;;;1.87;;
32786;SDS011;19139;49.372;8.580;2023-03-23T05:37:33;2.63;;;1.73;;
32786;SDS011;19139;49.372;8.580;2023-03-23T05:39:59;2.27;;;1.70;;
32786;SDS011;19139;49.372;8.580;2023-03-23T05:42:30;1.83;;;1.40;;
32786;SDS011;19139;49.372;8.580;2023-03-23T05:44:56;2.03;;;1.80;;
32786;SDS011;19139;49.372;8.580;2023-03-23T05:47:23;1.87;;;1.70;;
32786;SDS011;19139;49.372;8.580;2023-03-23T05:49:50;2.00;;;1.80;;
32786;SDS011;19139;49.372;8.580;2023-03-23T05:52:17;2.70;;;1.87;;
32786;SDS011;19139;49.372;8.580;2023-03-23T05:54:43;2.57;;;1.77;;
32786;SDS011;19139;49.372;8.580;2023-03-23T05:57:09;1.67;;;1.43;;
32786;SDS011;19139;49.372;8.580;2023-03-23T05:59:35;2.63;;;1.53;;
32786;SDS011;19139;49.372;8.580;2023-03-23T06:02:01;2.20;;;1.47;;
32786;SDS011;19139;49.372;8.580;2023-03-23T06:04:27;2.87;;;1.73;;
32786;SDS011;19139;49.372;8.580;2023-03-23T06:06:53;1.97;;;1.47;;
32786;SDS011;19139;49.372;8.580;2023-03-23T06:09:19;1.73;;;1.33;;
32786;SDS011;19139;49.372;8.580;2023-03-23T06:11:45;1.93;;;1.40;;
32786;SDS011;19139;49.372;8.580;2023-03-23T06:14:10;3.63;;;1.80;;
32786;SDS011;19139;49.372;8.580;2023-03-23T06:16:37;4.13;;;2.00;;
32786;SDS011;19139;49.372;8.580;2023-03-23T06:19:03;2.23;;;1.47;;
32786;SDS011;19139;49.372;8.580;2023-03-23T06:21:29;1.40;;;1.23;;
32786;SDS011;19139;49.372;8.580;2023-03-23T06:23:56;3.23;;;1.67;;
32786;SDS011;19139;49.372;8.580;2023-03-23T06:26:23;2.10;;;1.33;;
32786;SDS011;19139;49.372;8.580;2023-03-23T06:28:52;2.20;;;1.13;;
32786;SDS011;19139;49.372;8.580;2023-03-23T06:31:17;2.33;;;1.50;;
32786;SDS011;19139;49.372;8.580;2023-03-23T06:33:45;3.00;;;1.60;;
32786;SDS011;19139;49.372;8.580;2023-03-23T06:36:12;2.37;;;1.63;;
32786;SDS011;19139;49.372;8.580;2023-03-23T06:38:37;2.30;;;1.57;;
32786;SDS011;19139;49.372;8.580;2023-03-23T06:41:03;3.47;;;1.67;;
32786;SDS011;19139;49.372;8.580;2023-03-23T06:43:29;2.43;;;1.63;;
32786;SDS011;19139;49.372;8.580;2023-03-23T06:45:58;1.70;;;1.47;;
32786;SDS011;19139;49.372;8.580;2023-03-23T06:48:23;2.40;;;1.50;;
32786;SDS011;19139;49.372;8.580;2023-03-23T06:50:49;1.33;;;1.10;;
32786;SDS011;19139;49.372;8.580;2023-03-23T06:53:15;1.47;;;1.20;;
32786;SDS011;19139;49.372;8.580;2023-03-23T06:55:42;1.97;;;1.60;;
32786;SDS011;19139;49.372;8.580;2023-03-23T06:58:08;1.77;;;1.30;;
32786;SDS011;19139;49.372;8.580;2023-03-23T07:00:35;1.47;;;1.20;;
32786;SDS011;19139;49.372;8.580;2023-03-23T07:03:01;1.83;;;1.40;;
32786;SDS011;19139;49.372;8.580;2023-03-23T07:05:27;1.70;;;1.60;;
32786;SDS011;19139;49.372;8.580;2023-03-23T07:07:53;1.73;;;1.40;;
32786;SDS011;19139;49.372;8.580;2023-03-23T07:10:18;1.97;;;1.67;;
32786;SDS011;19139;49.372;8.580;2023-03-23T07:12:45;1.73;;;1.47;;
32786;SDS011;19139;49.372;8.580;2023-03-23T07:15:10;1.40;;;1.10;;
32786;SDS011;19139;49.372;8.580;2023-03-23T07:17:37;1.73;;;1.33;;
32786;SDS011;19139;49.372;8.580;2023-03-23T07:20:04;1.97;;;1.30;;
32786;SDS011;19139;49.372;8.580;2023-03-23T07:22:31;1.97;;;1.40;;
32786;SDS011;19139;49.372;8.580;2023-03-23T07:24:56;1.37;;;1.23;;
32786;SDS011;19139;49.372;8.580;2023-03-23T07:27:22;1.73;;;1.00;;
32786;SDS011;19139;49.372;8.580;2023-03-23T07:29:48;2.03;;;1.53;;
32786;SDS011;19139;49.372;8.580;2023-03-23T07:32:15;2.50;;;1.80;;
32786;SDS011;19139;49.372;8.580;2023-03-23T07:34:40;1.80;;;1.40;;
32786;SDS011;19139;49.372;8.580;2023-03-23T07:37:06;1.70;;;1.30;;
32786;SDS011;19139;49.372;8.580;2023-03-23T07:39:32;1.93;;;1.60;;
32786;SDS011;19139;49.372;8.580;2023-03-23T07:41:58;2.20;;;1.47;;
32786;SDS011;19139;49.372;8.580;2023-03-23T07:44:23;1.57;;;1.17;;
32786;SDS011;19139;49.372;8.580;2023-03-23T07:46:50;1.37;;;1.27;;
32786;SDS011;19139;49.372;8.580;2023-03-23T07:49:16;2.23;;;1.30;;
32786;SDS011;19139;49.372;8.580;2023-03-23T07:51:42;2.50;;;1.50;;
32786;SDS011;19139;49.372;8.580;2023-03-23T07:54:08;2.97;;;1.60;;
32786;SDS011;19139;49.372;8.580;2023-03-23T07:56:34;2.20;;;1.30;;
32786;SDS011;19139;49.372;8.580;2023-03-23T07:59:01;1.97;;;1.37;;
32786;SDS011;19139;49.372;8.580;2023-03-23T08:01:28;2.67;;;1.43;;
32786;SDS011;19139;49.372;8.580;2023-03-23T08:03:54;1.90;;;1.30;;
32786;SDS011;19139;49.372;8.580;2023-03-23T08:06:22;2.17;;;1.50;;
32786;SDS011;19139;49.372;8.580;2023-03-23T08:08:49;1.70;;;1.03;;
32786;SDS011;19139;49.372;8.580;2023-03-23T08:11:15;2.53;;;1.40;;
32786;SDS011;19139;49.372;8.580;2023-03-23T08:13:43;1.47;;;1.30;;
32786;SDS011;19139;49.372;8.580;2023-03-23T08:16:09;1.30;;;0.90;;
32786;SDS011;19139;49.372;8.580;2023-03-23T08:18:35;2.70;;;1.40;;
32786;SDS011;19139;49.372;8.580;2023-03-23T08:21:06;1.57;;;1.07;;
32786;SDS011;19139;49.372;8.580;2023-03-23T08:23:35;2.03;;;1.43;;
32786;SDS011;19139;49.372;8.580;2023-03-23T08:26:03;2.43;;;1.30;;
32786;SDS011;19139;49.372;8.580;2023-03-23T08:28:31;2.27;;;1.30;;
32786;SDS011;19139;49.372;8.580;2023-03-23T08:30:57;2.17;;;1.53;;
32786;SDS011;19139;49.372;8.580;2023-03-23T08:33:23;2.43;;;1.40;;
32786;SDS011;19139;49.372;8.580;2023-03-23T08:35:55;1.67;;;1.27;;
32786;SDS011;19139;49.372;8.580;2023-03-23T08:38:22;2.13;;;1.73;;
32786;SDS011;19139;49.372;8.580;2023-03-23T08:40:49;2.67;;;1.93;;
32786;SDS011;19139;49.372;8.580;2023-03-23T08:43:15;1.60;;;1.23;;
32786;SDS011;19139;49.372;8.580;2023-03-23T08:45:41;2.00;;;1.10;;
32786;SDS011;19139;49.372;8.580;2023-03-23T08:48:07;1.50;;;1.10;;
32786;SDS011;19139;49.372;8.580;2023-03-23T08:50:34;2.90;;;1.47;;
32786;SDS011;19139;49.372;8.580;2023-03-23T08:53:00;2.47;;;1.50;;
32786;SDS011;19139;49.372;8.580;2023-03-23T08:55:26;1.73;;;1.33;;
32786;SDS011;19139;49.372;8.580;2023-03-23T08:57:53;1.97;;;1.43;;
32786;SDS011;19139;49.372;8.580;2023-03-23T09:00:19;2.67;;;1.27;;
32786;SDS011;19139;49.372;8.580;2023-03-23T09:02:50;1.37;;;0.97;;
32786;SDS011;19139;49.372;8.580;2023-03-23T09:05:18;1.67;;;1.10;;
32786;SDS011;19139;49.372;8.580;2023-03-23T09:07:47;1.90;;;1.10;;
32786;SDS011;19139;49.372;8.580;2023-03-23T09:10:14;2.77;;;1.60;;
32786;SDS011;19139;49.372;8.580;2023-03-23T09:12:40;2.50;;;1.23;;
32786;SDS011;19139;49.372;8.580;2023-03-23T09:15:07;2.53;;;1.30;;
32786;SDS011;19139;49.372;8.580;2023-03-23T09:17:39;1.27;;;1.10;;
32786;SDS011;19139;49.372;8.580;2023-03-23T09:20:06;2.00;;;1.20;;
32786;SDS011;19139;49.372;8.580;2023-03-23T09:22:40;1.90;;;1.40;;
32786;SDS011;19139;49.372;8.580;2023-03-23T09:25:09;1.67;;;1.30;;
32786;SDS011;19139;49.372;8.580;2023-03-23T09:27:36;1.43;;;1.30;;
32786;SDS011;19139;49.372;8.580;2023-03-23T09:30:08;2.00;;;1.27;;
32786;SDS011;19139;49.372;8.580;2023-03-23T09:32:36;1.97;;;1.30;;
32786;SDS011;19139;49.372;8.580;2023-03-23T09:35:04;3.17;;;1.33;;
32786;SDS011;19139;49.372;8.580;2023-03-23T09:37:37;1.30;;;1.20;;
32786;SDS011;19139;49.372;8.580;2023-03-23T09:40:04;1.30;;;1.20;;
32786;SDS011;19139;49.372;8.580;2023-03-23T09:42:46;3.43;;;1.53;;
32786;SDS011;19139;49.372;8.580;2023-03-23T09:48:19;1.73;;;1.30;;
32786;SDS011;19139;49.372;8.580;2023-03-23T09:51:12;1.93;;;1.30;;
32786;SDS011;19139;49.372;8.580;2023-03-23T09:53:45;2.10;;;1.10;;
32786;SDS011;19139;49.372;8.580;2023-03-23T09:56:19;1.93;;;1.20;;
32786;SDS011;19139;49.372;8.580;2023-03-23T10:01:34;1.97;;;1.33;;
32786;SDS011;19139;49.372;8.580;2023-03-23T10:04:14;2.17;;;1.20;;
32786;SDS011;19139;49.372;8.580;2023-03-23T10:06:50;1.70;;;1.30;;
32786;SDS011;19139;49.372;8.580;2023-03-23T10:09:17;1.00;;;0.90;;
32786;SDS011;19139;49.372;8.580;2023-03-23T10:17:15;1.33;;;0.90;;
32786;SDS011;19139;49.372;8.580;2023-03-23T10:19:47;1.00;;;0.83;;
32786;SDS011;19139;49.372;8.580;2023-03-23T10:22:34;1.17;;;1.00;;
32786;SDS011;19139;49.372;8.580;2023-03-23T10:27:45;1.97;;;1.30;;
32786;SDS011;19139;49.372;8.580;2023-03-23T10:30:30;1.90;;;1.20;;
32786;SDS011;19139;49.372;8.580;2023-03-23T10:33:05;1.43;;;1.00;;
32786;SDS011;19139;49.372;8.580;2023-03-23T10:35:55;0.93;;;0.83;;
32786;SDS011;19139;49.372;8.580;2023-03-23T10:38:36;1.10;;;0.80;;
32786;SDS011;19139;49.372;8.580;2023-03-23T10:41:15;2.57;;;0.97;;
32786;SDS011;19139;49.372;8.580;2023-03-23T10:43:43;2.00;;;1.17;;
32786;SDS011;19139;49.372;8.580;2023-03-23T10:46:19;1.27;;;0.90;;
32786;SDS011;19139;49.372;8.580;2023-03-23T10:48:47;1.37;;;0.90;;
32786;SDS011;19139;49.372;8.580;2023-03-23T10:51:16;1.50;;;1.00;;
32786;SDS011;19139;49.372;8.580;2023-03-23T10:53:46;1.40;;;1.20;;
32786;SDS011;19139;49.372;8.580;2023-03-23T10:56:23;1.43;;;1.10;;
32786;SDS011;19139;49.372;8.580;2023-03-23T10:58:51;1.20;;;1.00;;
32786;SDS011;19139;49.372;8.580;2023-03-23T11:01:27;1.57;;;1.10;;
32786;SDS011;19139;49.372;8.580;2023-03-23T11:03:58;1.17;;;1.00;;
32786;SDS011;19139;49.372;8.580;2023-03-23T11:06:29;1.23;;;0.60;;
32786;SDS011;19139;49.372;8.580;2023-03-23T11:09:00;1.07;;;0.80;;
32786;SDS011;19139;49.372;8.580;2023-03-23T11:11:37;0.90;;;0.83;;
32786;SDS011;19139;49.372;8.580;2023-03-23T11:14:24;1.00;;;0.90;;
32786;SDS011;19139;49.372;8.580;2023-03-23T11:16:56;2.10;;;0.93;;
32786;SDS011;19139;49.372;8.580;2023-03-23T11:19:28;1.10;;;0.87;;
32786;SDS011;19139;49.372;8.580;2023-03-23T11:24:32;1.13;;;1.00;;
32786;SDS011;19139;49.372;8.580;2023-03-23T11:27:00;1.30;;;0.80;;
32786;SDS011;19139;49.372;8.580;2023-03-23T11:29:28;1.77;;;0.97;;
32786;SDS011;19139;49.372;8.580;2023-03-23T11:34:25;1.93;;;1.07;;
32786;SDS011;19139;49.372;8.580;2023-03-23T11:37:00;1.90;;;0.80;;
32786;SDS011;19139;49.372;8.580;2023-03-23T11:39:32;1.23;;;0.70;;
32786;SDS011;19139;49.372;8.580;2023-03-23T11:42:00;1.10;;;1.03;;
32786;SDS011;19139;49.372;8.580;2023-03-23T11:44:41;0.90;;;0.70;;
32786;SDS011;19139;49.372;8.580;2023-03-23T11:52:39;1.67;;;1.00;;
32786;SDS011;19139;49.372;8.580;2023-03-23T11:55:13;0.87;;;0.80;;
32786;SDS011;19139;49.372;8.580;2023-03-23T11:57:43;0.77;;;0.67;;
32786;SDS011;19139;49.372;8.580;2023-03-23T12:00:15;1.50;;;1.23;;
32786;SDS011;19139;49.372;8.580;2023-03-23T12:05:54;0.77;;;0.67;;
32786;SDS011;19139;49.372;8.580;2023-03-23T12:11:32;1.00;;;0.80;;
32786;SDS011;19139;49.372;8.580;2023-03-23T12:14:12;0.80;;;0.73;;
32786;SDS011;19139;49.372;8.580;2023-03-23T12:19:12;1.10;;;0.90;;
32786;SDS011;19139;49.372;8.580;2023-03-23T12:27:25;1.20;;;0.80;;
32786;SDS011;19139;49.372;8.580;2023-03-23T12:49:04;0.70;;;0.60;;
32786;SDS011;19139;49.372;8.580;2023-03-23T12:51:57;0.90;;;0.80;;
32786;SDS011;19139;49.372;8.580;2023-03-23T12:57:14;1.20;;;0.80;;
32786;SDS011;19139;49.372;8.580;2023-03-23T12:59:54;1.27;;;0.60;;
32786;SDS011;19139;49.372;8.580;2023-03-23T13:05:27;1.17;;;1.07;;
32786;SDS011;19139;49.372;8.580;2023-03-23T13:07:59;0.77;;;0.67;;
32786;SDS011;19139;49.372;8.580;2023-03-23T13:10:42;0.97;;;0.90;;
32786;SDS011;19139;49.372;8.580;2023-03-23T13:13:13;1.20;;;0.50;;
32786;SDS011;19139;49.372;8.580;2023-03-23T13:21:10;0.90;;;0.70;;
32786;SDS011;19139;49.372;8.580;2023-03-23T13:23:50;0.77;;;0.70;;
32786;SDS011;19139;49.372;8.580;2023-03-23T13:26:21;1.30;;;0.63;;
32786;SDS011;19139;49.372;8.580;2023-03-23T13:28:49;1.17;;;1.07;;
32786;SDS011;19139;49.372;8.580;2023-03-23T13:31:29;1.30;;;0.77;;
32786;SDS011;19139;49.372;8.580;2023-03-23T13:34:02;1.13;;;1.00;;
32786;SDS011;19139;49.372;8.580;2023-03-23T13:36:59;1.40;;;0.70;;
32786;SDS011;19139;49.372;8.580;2023-03-23T13:39:31;1.03;;;0.90;;
32786;SDS011;19139;49.372;8.580;2023-03-23T13:42:04;1.00;;;0.80;;
32786;SDS011;19139;49.372;8.580;2023-03-23T13:44:54;1.47;;;1.00;;
32786;SDS011;19139;49.372;8.580;2023-03-23T13:47:26;0.70;;;0.60;;
32786;SDS011;19139;49.372;8.580;2023-03-23T13:50:03;2.20;;;1.57;;
32786;SDS011;19139;49.372;8.580;2023-03-23T13:52:49;1.00;;;0.90;;
32786;SDS011;19139;49.372;8.580;2023-03-23T13:55:20;1.03;;;0.70;;
32786;SDS011;19139;49.372;8.580;2023-03-23T13:58:09;1.50;;;1.10;;
32786;SDS011;19139;49.372;8.580;2023-03-23T14:00:48;1.50;;;1.27;;
32786;SDS011;19139;49.372;8.580;2023-03-23T14:03:26;1.00;;;0.90;;
32786;SDS011;19139;49.372;8.580;2023-03-23T14:06:04;2.33;;;0.87;;
32786;SDS011;19139;49.372;8.580;2023-03-23T14:11:01;1.13;;;1.03;;
32786;SDS011;19139;49.372;8.580;2023-03-23T14:18:57;1.67;;;1.40;;
32786;SDS011;19139;49.372;8.580;2023-03-23T14:23:59;1.40;;;1.30;;
32786;SDS011;19139;49.372;8.580;2023-03-23T14:26:35;1.27;;;1.17;;
32786;SDS011;19139;49.372;8.580;2023-03-23T14:29:01;1.50;;;1.20;;
32786;SDS011;19139;49.372;8.580;2023-03-23T14:31:29;2.03;;;1.00;;
32786;SDS011;19139;49.372;8.580;2023-03-23T14:33:55;1.37;;;1.10;;
32786;SDS011;19139;49.372;8.580;2023-03-23T14:36:22;2.10;;;1.43;;
32786;SDS011;19139;49.372;8.580;2023-03-23T14:39:02;1.07;;;0.97;;
32786;SDS011;19139;49.372;8.580;2023-03-23T14:41:35;1.97;;;1.47;;
32786;SDS011;19139;49.372;8.580;2023-03-23T14:44:02;7.50;;;2.30;;
32786;SDS011;19139;49.372;8.580;2023-03-23T14:46:30;2.83;;;1.60;;
32786;SDS011;19139;49.372;8.580;2023-03-23T14:48:59;1.50;;;1.10;;
32786;SDS011;19139;49.372;8.580;2023-03-23T14:51:26;1.40;;;1.20;;
32786;SDS011;19139;49.372;8.580;2023-03-23T14:53:52;1.73;;;1.23;;
32786;SDS011;19139;49.372;8.580;2023-03-23T14:56:19;2.20;;;1.40;;
32786;SDS011;19139;49.372;8.580;2023-03-23T14:58:51;1.50;;;0.90;;
32786;SDS011;19139;49.372;8.580;2023-03-23T15:01:23;1.87;;;1.67;;
32786;SDS011;19139;49.372;8.580;2023-03-23T15:03:53;1.40;;;0.90;;
32786;SDS011;19139;49.372;8.580;2023-03-23T15:06:25;1.50;;;1.20;;
32786;SDS011;19139;49.372;8.580;2023-03-23T15:08:54;2.00;;;1.43;;
32786;SDS011;19139;49.372;8.580;2023-03-23T15:11:23;1.47;;;1.10;;
32786;SDS011;19139;49.372;8.580;2023-03-23T15:13:55;1.37;;;1.20;;
32786;SDS011;19139;49.372;8.580;2023-03-23T15:16:36;1.83;;;1.27;;
32786;SDS011;19139;49.372;8.580;2023-03-23T15:19:05;1.43;;;0.90;;
32786;SDS011;19139;49.372;8.580;2023-03-23T15:21:56;1.23;;;1.03;;
32786;SDS011;19139;49.372;8.580;2023-03-23T15:24:33;1.57;;;1.10;;
32786;SDS011;19139;49.372;8.580;2023-03-23T15:27:03;1.30;;;1.07;;
32786;SDS011;19139;49.372;8.580;2023-03-23T15:29:49;1.80;;;1.00;;
32786;SDS011;19139;49.372;8.580;2023-03-23T15:32:20;2.10;;;1.27;;
32786;SDS011;19139;49.372;8.580;2023-03-23T15:34:50;1.40;;;1.27;;
32786;SDS011;19139;49.372;8.580;2023-03-23T15:37:29;1.57;;;0.90;;
32786;SDS011;19139;49.372;8.580;2023-03-23T15:39:57;2.40;;;1.33;;
32786;SDS011;19139;49.372;8.580;2023-03-23T15:47:37;1.67;;;1.20;;
32786;SDS011;19139;49.372;8.580;2023-03-23T15:52:39;2.53;;;1.50;;
32786;SDS011;19139;49.372;8.580;2023-03-23T15:55:26;3.60;;;1.00;;
32786;SDS011;19139;49.372;8.580;2023-03-23T15:57:53;1.77;;;1.20;;
32786;SDS011;19139;49.372;8.580;2023-03-23T16:00:22;1.70;;;1.33;;
32786;SDS011;19139;49.372;8.580;2023-03-23T16:02:51;1.50;;;1.30;;
32786;SDS011;19139;49.372;8.580;2023-03-23T16:05:22;2.00;;;1.00;;
32786;SDS011;19139;49.372;8.580;2023-03-23T16:07:50;2.40;;;1.40;;
32786;SDS011;19139;49.372;8.580;2023-03-23T16:10:18;2.87;;;1.23;;
32786;SDS011;19139;49.372;8.580;2023-03-23T16:12:46;4.43;;;1.13;;
32786;SDS011;19139;49.372;8.580;2023-03-23T16:15:13;1.90;;;0.90;;
32786;SDS011;19139;49.372;8.580;2023-03-23T16:17:41;2.07;;;1.47;;
32786;SDS011;19139;49.372;8.580;2023-03-23T16:22:39;2.23;;;1.00;;
32786;SDS011;19139;49.372;8.580;2023-03-23T16:25:07;2.37;;;0.97;;
32786;SDS011;19139;49.372;8.580;2023-03-23T16:27:34;2.47;;;1.10;;
32786;SDS011;19139;49.372;8.580;2023-03-23T16:30:07;4.00;;;2.00;;
32786;SDS011;19139;49.372;8.580;2023-03-23T16:32:39;4.70;;;2.10;;
32786;SDS011;19139;49.372;8.580;2023-03-23T16:35:04;2.50;;;1.67;;
32786;SDS011;19139;49.372;8.580;2023-03-23T16:37:31;1.90;;;1.30;;
32786;SDS011;19139;49.372;8.580;2023-03-23T16:40:00;1.77;;;1.40;;
32786;SDS011;19139;49.372;8.580;2023-03-23T16:42:27;2.13;;;1.17;;
32786;SDS011;19139;49.372;8.580;2023-03-23T16:44:54;3.13;;;0.90;;
32786;SDS011;19139;49.372;8.580;2023-03-23T16:47:21;2.73;;;1.00;;
32786;SDS011;19139;49.372;8.580;2023-03-23T16:49:51;1.33;;;0.90;;